Time;durP1;ratioP1;P1;durP2;ratioP2;P2;SDS_P1;SDS_P2;PMS_P1;PMS_P2;Temp;Humidity;BMP_temperature;BMP_pressure;BME280_temperature;BME280_humidity;BME280_pressure;Samples;Min_cycle;Max_cycle;Signal;HPM_P1;HPM_P2
2023/02/27 00:02:18;;;;;;;;;;;;;;;16.24;52.57;98210.72;4958778;28;19981;-71
2023/02/27 00:04:44;;;;;;;;;;;;;;;16.23;52.27;98219.59;4942682;28;19926;-71
2023/02/27 00:07:09;;;;;;;;;;;;;;;16.18;52.48;98218.47;4975968;28;20373;-71
2023/02/27 00:09:34;;;;;;;;;;;;;;;16.18;52.33;98226.38;4959216;28;19973;-69
2023/02/27 00:12:00;;;;;;;;;;;;;;;16.17;52.46;98230.00;4958214;28;20012;-70
2023/02/27 00:14:25;;;;;;;;;;;;;;;16.17;52.72;98227.34;4976263;28;19924;-70
2023/02/27 00:16:51;;;;;;;;;;;;;;;16.17;52.41;98217.63;4958902;28;20382;-69
2023/02/27 00:19:16;;;;;;;;;;;;;;;16.18;52.80;98226.38;4959108;28;19970;-70
2023/02/27 00:21:43;;;;;;;;;;;;;;;16.19;52.48;98228.84;4958991;28;20076;-70
2023/02/27 00:24:08;;;;;;;;;;;;;;;16.16;52.53;98236.22;4976085;28;19941;-69
2023/02/27 00:26:34;;;;;;;;;;;;;;;16.15;52.90;98234.59;4975825;28;19922;-70
2023/02/27 00:28:59;;;;;;;;;;;;;;;16.16;52.99;98238.88;4958379;28;20020;-70
2023/02/27 00:31:24;;;;;;;;;;;;;;;16.18;52.69;98227.19;4958579;28;20394;-69
2023/02/27 00:33:50;;;;;;;;;;;;;;;16.21;52.76;98236.59;4975666;28;19918;-69
2023/02/27 00:36:15;;;;;;;;;;;;;;;16.26;52.91;98232.44;4975698;28;19918;-69
2023/02/27 00:38:40;;;;;;;;;;;;;;;16.23;52.41;98231.97;4958557;28;19991;-71
2023/02/27 00:41:05;;;;;;;;;;;;;;;16.19;52.58;98238.53;4958154;28;20381;-71
2023/02/27 00:43:31;;;;;;;;;;;;;;;16.21;52.77;98236.59;4975561;28;19925;-71
2023/02/27 00:45:57;;;;;;;;;;;;;;;16.22;52.82;98227.69;4958331;28;19918;-70
2023/02/27 00:48:22;;;;;;;;;;;;;;;16.22;52.89;98232.94;4942075;28;19985;-70
2023/02/27 00:50:48;;;;;;;;;;;;;;;16.23;52.90;98242.50;4975196;28;19918;-70
2023/02/27 00:53:13;;;;;;;;;;;;;;;16.25;53.10;98225.53;4958004;28;19976;-70
2023/02/27 00:55:38;;;;;;;;;;;;;;;16.30;52.71;98230.28;4941653;28;19918;-70
2023/02/27 00:58:04;;;;;;;;;;;;;;;16.35;52.94;98221.91;4958026;28;19922;-71
2023/02/27 01:00:29;;;;;;;;;;;;;;;16.37;52.88;98223.38;4957717;28;19925;-70
2023/02/27 01:02:54;;;;;;;;;;;;;;;16.40;52.82;98219.59;4975236;28;19933;-71
2023/02/27 01:05:20;;;;;;;;;;;;;;;16.42;52.97;98221.06;4957900;28;20008;-70
2023/02/27 01:07:45;;;;;;;;;;;;;;;16.45;53.10;98228.63;4957849;28;19922;-71
2023/02/27 01:10:10;;;;;;;;;;;;;;;16.48;52.98;98218.75;4957993;28;20029;-71
2023/02/27 01:12:36;;;;;;;;;;;;;;;16.48;52.87;98216.13;4975296;28;20366;-70
2023/02/27 01:15:01;;;;;;;;;;;;;;;16.40;53.24;98227.50;4941486;28;19922;-71
2023/02/27 01:17:27;;;;;;;;;;;;;;;16.41;53.39;98221.22;4974903;28;20387;-70
2023/02/27 01:19:52;;;;;;;;;;;;;;;16.42;53.36;98226.34;4957638;28;19918;-70
2023/02/27 01:22:17;;;;;;;;;;;;;;;16.37;53.71;98228.66;4974305;28;19918;-70
2023/02/27 01:24:42;;;;;;;;;;;;;;;16.37;53.68;98247.09;4957355;28;19926;-70
2023/02/27 01:27:08;;;;;;;;;;;;;;;16.33;54.03;98245.78;4957833;28;19918;-70
2023/02/27 01:29:33;;;;;;;;;;;;;;;16.35;54.10;98251.72;4974476;28;19929;-70
2023/02/27 01:31:58;;;;;;;;;;;;;;;16.39;54.07;98252.19;4977731;28;19969;-70
2023/02/27 01:34:24;;;;;;;;;;;;;;;16.40;54.42;98253.84;4979202;28;19976;-69
2023/02/27 01:36:49;;;;;;;;;;;;;;;16.41;54.28;98258.13;5013841;28;19917;-70
2023/02/27 01:39:14;;;;;;;;;;;;;;;16.42;54.35;98257.13;4996193;28;20016;-70
2023/02/27 01:41:39;;;;;;;;;;;;;;;16.44;54.26;98265.69;4979766;28;19941;-70
2023/02/27 01:44:06;;;;;;;;;;;;;;;16.44;54.27;98268.31;4995513;28;20373;-70
2023/02/27 01:46:31;;;;;;;;;;;;;;;16.44;54.46;98277.03;5013341;28;20277;-70
2023/02/27 01:49:08;;;;;;;;;;;;;;;16.45;54.42;98283.16;4995954;28;19922;-70
2023/02/27 01:51:35;;;;;;;;;;;;;;;16.46;54.87;98276.88;5013336;28;19918;-70
2023/02/27 01:54:00;;;;;;;;;;;;;;;16.46;54.92;98287.41;4995834;28;19922;-70
2023/02/27 01:56:28;;;;;;;;;;;;;;;16.47;54.85;98289.06;4995945;28;20420;-70
2023/02/27 01:58:55;;;;;;;;;;;;;;;16.47;54.89;98289.06;4995750;28;19999;-71
2023/02/27 02:01:21;;;;;;;;;;;;;;;16.48;55.10;98292.50;4995376;28;20456;-70
2023/02/27 02:03:51;;;;;;;;;;;;;;;16.48;54.80;98287.25;4979293;28;19995;-70
2023/02/27 02:06:16;;;;;;;;;;;;;;;16.48;55.03;98292.50;4995800;28;19917;-71
2023/02/27 02:08:43;;;;;;;;;;;;;;;16.48;55.46;98282.81;5013252;28;20416;-70
2023/02/27 02:11:08;;;;;;;;;;;;;;;16.48;55.38;98292.50;4995604;28;19918;-70
2023/02/27 02:13:33;;;;;;;;;;;;;;;16.49;55.63;98302.88;4995452;28;19996;-70
2023/02/27 02:16:03;;;;;;;;;;;;;;;16.50;55.66;98303.72;5013042;28;20019;-70
2023/02/27 02:18:41;;;;;;;;;;;;;;;16.48;55.52;98301.25;4995218;28;19975;-70
2023/02/27 02:21:18;;;;;;;;;;;;;;;16.48;55.42;98298.63;4995290;28;20037;-71
2023/02/27 02:23:50;;;;;;;;;;;;;;;16.43;55.68;98304.38;4995248;28;20443;-70
2023/02/27 02:26:26;;;;;;;;;;;;;;;16.43;55.77;98293.84;5012833;28;19917;-70
2023/02/27 02:29:10;;;;;;;;;;;;;;;16.41;55.66;98287.09;4979131;28;19924;-71
2023/02/27 02:31:54;;;;;;;;;;;;;;;16.37;55.77;98278.69;5012708;28;19948;-70
2023/02/27 02:34:25;;;;;;;;;;;;;;;16.35;55.59;98291.22;5014393;28;19918;-70
2023/02/27 02:37:05;;;;;;;;;;;;;;;16.31;55.67;98297.78;5017154;28;19924;-70
2023/02/27 02:39:49;;;;;;;;;;;;;;;16.28;55.67;98295.50;4999253;28;19918;-71
2023/02/27 02:42:23;;;;;;;;;;;;;;;16.25;55.83;98298.44;5016661;28;19922;-71
2023/02/27 02:45:06;;;;;;;;;;;;;;;16.22;56.02;98306.69;4999307;28;19917;-70
2023/02/27 02:47:32;;;;;;;;;;;;;;;16.18;56.12;98303.56;5016785;28;19918;-71
2023/02/27 02:50:02;;;;;;;;;;;;;;;16.17;56.42;98301.91;4999451;28;19951;-70
2023/02/27 02:52:46;;;;;;;;;;;;;;;16.14;56.68;98304.03;4982509;28;20342;-70
2023/02/27 02:55:14;;;;;;;;;;;;;;;16.10;56.71;98316.72;5016656;28;20428;-71
2023/02/27 02:57:44;;;;;;;;;;;;;;;16.06;56.64;98320.66;4999344;28;19917;-71
2023/02/27 03:00:30;;;;;;;;;;;;;;;16.04;56.86;98322.63;5016748;28;19925;-70
2023/02/27 03:03:00;;;;;;;;;;;;;;;16.00;56.92;98321.28;4998955;28;20020;-70
2023/02/27 03:05:31;;;;;;;;;;;;;;;15.95;57.11;98313.06;4998766;28;20071;-70
2023/02/27 03:07:58;;;;;;;;;;;;;;;15.91;56.93;98307.31;4982759;28;19918;-71
2023/02/27 03:10:29;;;;;;;;;;;;;;;15.86;57.25;98294.63;4982397;28;19968;-70
2023/02/27 03:12:59;;;;;;;;;;;;;;;15.85;57.55;98305.31;5016526;28;20339;-70
2023/02/27 03:15:25;;;;;;;;;;;;;;;15.83;57.47;98296.75;4998809;28;19921;-70
2023/02/27 03:17:54;;;;;;;;;;;;;;;15.80;57.34;98299.72;4998717;28;20012;-70
2023/02/27 03:20:24;;;;;;;;;;;;;;;15.78;57.63;98310.41;4998526;28;19917;-70
2023/02/27 03:22:50;;;;;;;;;;;;;;;15.76;57.54;98314.16;4998436;28;19917;-71
2023/02/27 03:25:15;;;;;;;;;;;;;;;15.72;57.87;98311.84;4998733;28;20441;-71
2023/02/27 03:27:45;;;;;;;;;;;;;;;15.71;57.73;98319.88;4998535;28;19918;-71
2023/02/27 03:30:19;;;;;;;;;;;;;;;15.68;57.86;98315.75;4998644;28;19917;-71
2023/02/27 03:32:53;;;;;;;;;;;;;;;15.68;57.83;98333.34;5015829;28;20321;-71
2023/02/27 03:35:18;;;;;;;;;;;;;;;15.66;57.78;98336.16;4982025;28;20104;-71
2023/02/27 03:37:52;;;;;;;;;;;;;;;15.64;57.87;98327.59;4998666;28;20029;-71
2023/02/27 03:40:36;;;;;;;;;;;;;;;15.62;58.13;98328.72;5015739;28;20303;-71
2023/02/27 03:43:01;;;;;;;;;;;;;;;15.60;57.91;98328.06;5015860;28;19918;-71
2023/02/27 03:45:27;;;;;;;;;;;;;;;15.59;57.91;98336.94;4997186;28;19924;-71
2023/02/27 03:47:52;;;;;;;;;;;;;;;15.58;58.04;98325.59;5015893;28;19923;-71
2023/02/27 03:50:17;;;;;;;;;;;;;;;15.56;58.01;98322.31;4998110;28;19969;-71
2023/02/27 03:52:43;;;;;;;;;;;;;;;15.56;58.10;98319.69;4981709;28;19924;-71
2023/02/27 03:55:08;;;;;;;;;;;;;;;15.53;58.05;98320.81;4981656;28;20020;-71
2023/02/27 03:57:34;;;;;;;;;;;;;;;15.52;58.35;98324.41;5015413;28;19928;-71
2023/02/27 03:59:59;;;;;;;;;;;;;;;15.52;58.32;98327.03;4997858;28;19918;-71
2023/02/27 04:02:25;;;;;;;;;;;;;;;15.48;58.41;98324.88;4997689;28;19925;-71
2023/02/27 04:04:50;;;;;;;;;;;;;;;15.46;58.41;98334.75;4997905;28;19918;-71
2023/02/27 04:07:28;;;;;;;;;;;;;;;15.44;58.44;98337.53;5015617;28;19990;-71
2023/02/27 04:09:53;;;;;;;;;;;;;;;15.41;58.46;98340.50;4997935;28;19925;-71
2023/02/27 04:12:25;;;;;;;;;;;;;;;15.39;58.48;98347.72;4997501;28;19918;-72
2023/02/27 04:14:56;;;;;;;;;;;;;;;15.34;58.35;98350.81;5015869;28;20418;-71
2023/02/27 04:17:22;;;;;;;;;;;;;;;15.31;58.34;98353.75;5015409;28;19937;-71
2023/02/27 04:19:51;;;;;;;;;;;;;;;15.28;58.21;98361.16;4997102;28;20058;-70
2023/02/27 04:22:16;;;;;;;;;;;;;;;15.25;58.59;98361.47;5014927;28;19921;-70
2023/02/27 04:25:01;;;;;;;;;;;;;;;15.22;58.53;98359.13;5014966;28;20376;-70
2023/02/27 04:27:30;;;;;;;;;;;;;;;15.21;58.56;98371.44;4997321;28;20413;-70
2023/02/27 04:30:09;;;;;;;;;;;;;;;15.18;58.54;98355.97;4997242;28;19918;-70
2023/02/27 04:32:50;;;;;;;;;;;;;;;15.17;58.76;98356.97;4997355;28;19921;-72
2023/02/27 04:35:20;;;;;;;;;;;;;;;15.14;58.69;98363.34;5014742;28;19924;-72
2023/02/27 04:37:47;;;;;;;;;;;;;;;15.17;60.20;98375.38;4997500;28;19929;-73
2023/02/27 04:40:14;;;;;;;;;;;;;;;15.24;61.48;98360.59;4996373;28;19918;-75
2023/02/27 04:42:42;;;;;;;;;;;;;;;15.24;60.55;98360.59;4980373;28;19918;-74
2023/02/27 04:45:07;;;;;;;;;;;;;;;15.24;60.53;98368.50;4996888;28;19921;-67
2023/02/27 04:47:34;;;;;;;;;;;;;;;15.37;63.25;98379.44;4996988;28;20020;-66
2023/02/27 04:50:03;;;;;;;;;;;;;;;15.37;61.93;98386.50;4996966;28;19925;-66
2023/02/27 04:52:54;;;;;;;;;;;;;;;15.34;61.37;98398.16;4980482;28;20312;-75
2023/02/27 04:55:21;;;;;;;;;;;;;;;15.33;61.11;98395.69;4994404;28;19975;-68
2023/02/27 04:58:12;;;;;;;;;;;;;;;15.38;64.09;98394.22;4980414;28;19917;-68
2023/02/27 05:00:38;;;;;;;;;;;;;;;15.41;62.37;98415.94;5012384;28;19924;-69
2023/02/27 05:03:11;;;;;;;;;;;;;;;15.41;61.87;98423.84;4996300;28;19997;-68
2023/02/27 05:05:37;;;;;;;;;;;;;;;15.38;61.09;98428.41;4996555;28;19952;-69
2023/02/27 05:08:32;;;;;;;;;;;;;;;15.43;64.60;98433.19;4996978;28;19967;-76
2023/02/27 05:10:58;;;;;;;;;;;;;;;15.77;64.37;98437.69;4973269;28;19957;-69
2023/02/27 05:13:27;;;;;;;;;;;;;;;15.72;62.15;98422.34;4956818;28;20285;-69
2023/02/27 05:15:55;;;;;;;;;;;;;;;15.66;61.58;98424.78;4956684;28;19922;-68
2023/02/27 05:18:20;;;;;;;;;;;;;;;15.63;60.93;98433.81;4956729;28;19925;-78
2023/02/27 05:20:55;;;;;;;;;;;;;;;15.64;60.63;98432.84;4940492;28;20403;-78
2023/02/27 05:23:29;;;;;;;;;;;;;;;15.64;60.33;98442.53;4956504;28;20013;-76
2023/02/27 05:25:55;;;;;;;;;;;;;;;15.65;59.98;98441.53;4956038;28;20122;-77
2023/02/27 05:28:22;;;;;;;;;;;;;;;15.66;59.59;98445.84;4970724;28;20385;-77
2023/02/27 05:30:55;;;;;;;;;;;;;;;15.71;59.21;98446.19;4940123;28;19918;-77
2023/02/27 05:33:26;;;;;;;;;;;;;;;15.74;58.94;98462.47;4972691;28;19918;-77
2023/02/27 05:36:11;;;;;;;;;;;;;;;15.80;58.64;98463.69;4956441;28;19940;-77
2023/02/27 05:38:37;;;;;;;;;;;;;;;15.83;58.54;98466.03;4939811;28;20406;-77
2023/02/27 05:41:04;;;;;;;;;;;;;;;15.84;58.35;98472.09;4972074;28;19965;-77
2023/02/27 05:43:33;;;;;;;;;;;;;;;15.85;58.16;98468.50;4955914;28;19925;-76
2023/02/27 05:46:00;;;;;;;;;;;;;;;15.87;57.86;98475.25;4956484;28;19918;-76
2023/02/27 05:48:34;;;;;;;;;;;;;;;15.89;57.92;98496.97;4977149;28;19979;-76
2023/02/27 05:50:59;;;;;;;;;;;;;;;15.89;57.69;98515.41;5013078;28;20300;-76
2023/02/27 05:53:26;;;;;;;;;;;;;;;15.88;57.58;98547.97;4995763;28;19921;-77
2023/02/27 05:55:52;;;;;;;;;;;;;;;15.87;57.63;98561.28;4995702;28;19918;-75
2023/02/27 05:58:17;;;;;;;;;;;;;;;15.87;57.59;98567.34;4995670;28;20411;-75
2023/02/27 06:00:43;;;;;;;;;;;;;;;15.94;57.16;98562.31;5013018;28;19969;-77
2023/02/27 06:03:08;;;;;;;;;;;;;;;16.06;56.80;98565.50;5013340;28;19921;-76
2023/02/27 06:05:34;;;;;;;;;;;;;;;16.12;56.10;98578.03;5013274;28;19921;-76
2023/02/27 06:07:59;;;;;;;;;;;;;;;16.31;55.61;98576.16;4995724;28;19917;-76
2023/02/27 06:10:25;;;;;;;;;;;;;;;16.54;55.09;98572.00;5012663;28;20436;-75
2023/02/27 06:12:50;;;;;;;;;;;;;;;16.95;54.21;98587.09;5013535;28;19952;-76
2023/02/27 06:15:17;;;;;;;;;;;;;;;17.38;53.19;98587.84;4995677;28;20485;-76
2023/02/27 06:17:42;;;;;;;;;;;;;;;17.82;52.68;98600.69;5013261;28;19973;-76
2023/02/27 06:20:08;;;;;;;;;;;;;;;18.34;51.55;98599.44;4978829;28;19964;-75
2023/02/27 06:22:33;;;;;;;;;;;;;;;19.08;50.24;98595.66;4978704;28;20354;-75
2023/02/27 06:24:58;;;;;;;;;;;;;;;19.29;50.18;98605.59;5013106;28;19926;-75
2023/02/27 06:27:25;;;;;;;;;;;;;;;19.64;48.96;98605.97;4995243;28;20011;-75
2023/02/27 06:29:51;;;;;;;;;;;;;;;19.78;47.71;98599.13;5012716;28;20012;-74
2023/02/27 06:32:16;;;;;;;;;;;;;;;19.85;46.50;98592.91;4995321;28;20022;-75
2023/02/27 06:34:41;;;;;;;;;;;;;;;19.88;46.43;98591.75;4979261;28;19968;-76
2023/02/27 06:37:07;;;;;;;;;;;;;;;19.82;45.99;98590.63;4994915;28;19917;-75
2023/02/27 06:39:32;;;;;;;;;;;;;;;19.71;45.01;98596.34;4995283;28;19918;-76
2023/02/27 06:41:57;;;;;;;;;;;;;;;19.55;45.74;98597.31;5012817;28;19917;-76
2023/02/27 06:44:23;;;;;;;;;;;;;;;19.39;45.56;98577.09;4978975;28;19924;-79
2023/02/27 06:46:48;;;;;;;;;;;;;;;19.34;51.86;98564.38;4983263;28;19917;-70
2023/02/27 06:49:13;;;;;;;;;;;;;;;19.27;51.79;98566.06;4978973;28;19940;-69
2023/02/27 06:51:39;;;;;;;;;;;;;;;19.21;51.66;98565.97;4979169;28;19967;-70
2023/02/27 06:54:04;;;;;;;;;;;;;;;19.21;51.88;98568.63;4978899;28;19964;-68
2023/02/27 06:56:29;;;;;;;;;;;;;;;19.26;51.09;98568.91;4978877;28;19924;-70
2023/02/27 06:58:55;;;;;;;;;;;;;;;19.38;50.94;98574.63;4978607;28;19971;-70
2023/02/27 07:01:20;;;;;;;;;;;;;;;19.73;49.63;98570.50;4994263;28;20381;-72
2023/02/27 07:03:45;;;;;;;;;;;;;;;20.08;48.02;98564.72;5013133;28;20012;-73
2023/02/27 07:06:10;;;;;;;;;;;;;;;20.29;45.23;98569.28;4995717;28;20372;-72
2023/02/27 07:08:36;;;;;;;;;;;;;;;20.42;45.14;98564.16;4994958;28;19922;-73
2023/02/27 07:11:01;;;;;;;;;;;;;;;20.56;45.32;98560.66;4994583;28;19918;-76
2023/02/27 07:13:26;;;;;;;;;;;;;;;20.84;44.70;98561.81;4995423;28;20032;-75
2023/02/27 07:15:52;;;;;;;;;;;;;;;21.02;42.95;98559.56;4996650;28;19960;-77
2023/02/27 07:18:18;;;;;;;;;;;;;;;21.72;40.73;98566.94;5013169;28;19918;-78
2023/02/27 07:20:43;;;;;;;;;;;;;;;22.15;39.45;98575.59;4995692;28;19924;-71
2023/02/27 07:23:09;;;;;;;;;;;;;;;22.33;37.65;98574.28;5016162;28;19917;-72
2023/02/27 07:25:34;;;;;;;;;;;;;;;22.55;35.17;98575.84;4998616;28;19921;-73
2023/02/27 07:28:00;;;;;;;;;;;;;;;22.83;34.35;98579.41;5016174;28;19924;-74
2023/02/27 07:30:25;;;;;;;;;;;;;;;23.29;32.11;98573.38;4998549;28;19961;-73
2023/02/27 07:32:50;;;;;;;;;;;;;;;23.64;30.15;98578.53;4998452;28;19924;-72
2023/02/27 07:35:16;;;;;;;;;;;;;;;23.86;30.72;98576.50;5015772;28;19921;-71
2023/02/27 07:37:41;;;;;;;;;;;;;;;24.34;29.82;98581.53;4997897;28;19917;-72
2023/02/27 07:40:07;;;;;;;;;;;;;;;25.07;28.99;98590.25;5015995;28;19975;-74
2023/02/27 07:42:33;;;;;;;;;;;;;;;25.75;29.53;98594.13;4997813;28;19918;-73
2023/02/27 07:44:59;;;;;;;;;;;;;;;26.34;28.61;98600.75;4998280;28;19918;-74
2023/02/27 07:47:24;;;;;;;;;;;;;;;27.00;26.99;98595.66;4982097;28;19925;-71
2023/02/27 07:49:49;;;;;;;;;;;;;;;27.46;26.12;98601.41;5015644;28;20408;-72
2023/02/27 07:52:15;;;;;;;;;;;;;;;27.95;25.23;98603.94;4998288;28;19924;-72
2023/02/27 07:54:40;;;;;;;;;;;;;;;28.29;25.65;98606.81;4997983;28;20008;-72
2023/02/27 07:57:05;;;;;;;;;;;;;;;28.46;25.19;98605.03;4997563;28;20292;-72
2023/02/27 07:59:31;;;;;;;;;;;;;;;28.43;24.91;98610.06;5015120;28;20297;-73
2023/02/27 08:01:56;;;;;;;;;;;;;;;28.27;23.91;98616.97;5013491;28;19925;-71
2023/02/27 08:04:22;;;;;;;;;;;;;;;28.29;23.83;98623.75;4996643;28;19921;-73
2023/02/27 08:06:47;;;;;;;;;;;;;;;28.13;23.49;98622.59;4997672;28;19918;-73
2023/02/27 08:09:12;;;;;;;;;;;;;;;28.00;23.84;98627.38;4981151;28;19922;-74
2023/02/27 08:11:38;;;;;;;;;;;;;;;27.99;24.41;98626.56;4981435;28;19917;-71
2023/02/27 08:14:03;;;;;;;;;;;;;;;27.75;24.21;98623.00;5015455;28;19917;-73
2023/02/27 08:16:29;;;;;;;;;;;;;;;27.56;24.36;98625.78;4997258;28;20372;-73
2023/02/27 08:18:54;;;;;;;;;;;;;;;27.48;24.56;98627.97;5015234;28;19936;-74
2023/02/27 08:21:19;;;;;;;;;;;;;;;27.44;24.70;98643.72;5015109;28;20445;-75
2023/02/27 08:23:45;;;;;;;;;;;;;;;27.33;24.47;98639.94;4997559;28;19970;-77
2023/02/27 08:26:10;;;;;;;;;;;;;;;27.16;24.61;98639.72;5015274;28;19917;-76
2023/02/27 08:28:35;;;;;;;;;;;;;;;26.98;24.91;98635.25;4997471;28;20285;-75
2023/02/27 08:31:01;;;;;;;;;;;;;;;27.02;24.30;98647.13;5015090;28;19960;-77
2023/02/27 08:33:26;;;;;;;;;;;;;;;26.93;24.66;98645.81;4980840;28;19925;-77
2023/02/27 08:35:53;;;;;;;;;;;;;;;26.83;24.18;98657.06;5014974;28;20011;-81
2023/02/27 08:38:18;;;;;;;;;;;;;;;26.67;24.01;98663.84;4981557;28;20422;-75
2023/02/27 08:40:44;;;;;;;;;;;;;;;26.60;24.01;98656.88;4997291;28;19925;-74
2023/02/27 08:43:09;;;;;;;;;;;;;;;26.58;24.42;98669.69;5014994;28;19924;-75
2023/02/27 08:45:34;;;;;;;;;;;;;;;26.71;23.87;98670.38;5014704;28;20004;-76
2023/02/27 08:47:59;;;;;;;;;;;;;;;26.98;23.63;98674.59;4981633;28;19917;-75
2023/02/27 08:50:25;;;;;;;;;;;;;;;27.23;22.99;98677.97;5014800;28;19918;-75
2023/02/27 08:52:50;;;;;;;;;;;;;;;27.32;23.13;98694.56;4996802;28;19948;-74
2023/02/27 08:55:15;;;;;;;;;;;;;;;27.48;23.46;98695.00;4997007;28;19962;-74
2023/02/27 08:57:41;;;;;;;;;;;;;;;27.57;23.10;98694.44;5014586;28;20371;-77
2023/02/27 09:00:07;;;;;;;;;;;;;;;27.65;23.14;98693.28;4996240;28;19980;-77
2023/02/27 09:02:32;;;;;;;;;;;;;;;27.74;23.28;98707.19;4996804;28;19976;-75
2023/02/27 09:04:58;;;;;;;;;;;;;;;27.96;22.73;98702.94;4996609;28;19918;-74
2023/02/27 09:07:23;;;;;;;;;;;;;;;28.17;22.92;98711.50;4996788;28;19975;-76
2023/02/27 09:09:48;;;;;;;;;;;;;;;28.19;22.24;98714.75;4997185;28;19924;-76
2023/02/27 09:12:14;;;;;;;;;;;;;;;28.28;22.51;98724.09;5014215;28;19921;-74
2023/02/27 09:14:39;;;;;;;;;;;;;;;28.52;22.24;98727.59;5013852;28;19917;-75
2023/02/27 09:17:05;;;;;;;;;;;;;;;28.36;22.42;98727.50;5014370;28;20431;-73
2023/02/27 09:19:31;;;;;;;;;;;;;;;28.56;22.29;98732.50;5013990;28;19942;-74
2023/02/27 09:21:56;;;;;;;;;;;;;;;28.57;22.39;98728.75;4995842;28;20376;-73
2023/02/27 09:24:21;;;;;;;;;;;;;;;28.56;22.48;98725.28;5013903;28;19917;-73
2023/02/27 09:26:47;;;;;;;;;;;;;;;28.57;22.58;98728.75;5013980;28;19917;-73
2023/02/27 09:29:12;;;;;;;;;;;;;;;28.60;22.43;98734.50;4996143;28;19925;-72
2023/02/27 09:31:37;;;;;;;;;;;;;;;28.38;22.59;98728.88;4996270;28;20321;-72
2023/02/27 09:34:03;;;;;;;;;;;;;;;28.26;23.06;98738.78;5014213;28;20017;-72
2023/02/27 09:36:28;;;;;;;;;;;;;;;28.19;23.27;98741.59;4995996;28;20010;-75
2023/02/27 09:38:54;;;;;;;;;;;;;;;28.27;23.35;98738.56;4996255;28;19921;-72
2023/02/27 09:41:32;;;;;;;;;;;;;;;28.28;23.82;98742.88;4995916;28;20012;-76
2023/02/27 09:44:00;;;;;;;;;;;;;;;28.19;23.72;98746.16;4995906;28;19995;-74
2023/02/27 09:46:25;;;;;;;;;;;;;;;28.14;24.14;98744.16;4996353;28;19975;-74
2023/02/27 09:48:51;;;;;;;;;;;;;;;28.08;24.32;98748.56;4996241;28;19958;-72
2023/02/27 09:51:16;;;;;;;;;;;;;;;28.07;24.91;98743.44;4995999;28;19975;-74
2023/02/27 09:53:42;;;;;;;;;;;;;;;27.97;24.92;98747.53;4995874;28;20293;-75
2023/02/27 09:56:16;;;;;;;;;;;;;;;27.92;24.86;98744.66;5013534;28;19924;-78
2023/02/27 09:59:00;;;;;;;;;;;;;;;27.78;25.42;98737.88;4995980;28;19917;-74
2023/02/27 10:01:28;;;;;;;;;;;;;;;27.69;25.36;98748.13;5013401;28;19987;-74
2023/02/27 10:03:53;;;;;;;;;;;;;;;27.65;25.27;98744.25;4995459;28;20400;-74
2023/02/27 10:06:23;;;;;;;;;;;;;;;27.53;25.49;98744.22;5013304;28;20032;-79
2023/02/27 10:09:07;;;;;;;;;;;;;;;27.43;25.42;98741.25;4995741;28;19917;-75
2023/02/27 10:11:37;;;;;;;;;;;;;;;27.32;25.54;98742.00;5013425;28;19960;-78
2023/02/27 10:14:28;;;;;;;;;;;;;;;27.17;25.99;98735.16;4995568;28;20320;-73
2023/02/27 10:16:53;;;;;;;;;;;;;;;27.17;26.11;98729.78;4955605;28;19918;-74
2023/02/27 10:19:22;;;;;;;;;;;;;;;27.13;26.14;98738.50;4956362;28;19918;-73
2023/02/27 10:21:49;;;;;;;;;;;;;;;27.17;25.90;98745.06;4972168;28;20008;-76
2023/02/27 10:24:17;;;;;;;;;;;;;;;27.20;25.95;98741.91;4939762;28;19918;-74
2023/02/27 10:26:42;;;;;;;;;;;;;;;27.11;26.14;98745.97;4972073;28;19918;-73
2023/02/27 10:29:13;;;;;;;;;;;;;;;27.20;26.31;98742.75;4972423;28;19925;-78
2023/02/27 10:31:38;;;;;;;;;;;;;;;27.38;26.18;98736.56;4956037;28;20008;-76
2023/02/27 10:34:03;;;;;;;;;;;;;;;27.49;25.94;98726.94;4971970;28;19978;-76
2023/02/27 10:36:29;;;;;;;;;;;;;;;27.65;25.88;98730.03;4956042;28;19919;-78
2023/02/27 10:38:55;;;;;;;;;;;;;;;27.73;25.92;98725.13;4972119;28;20425;-80
2023/02/27 10:41:20;;;;;;;;;;;;;;;27.92;25.97;98727.75;4939750;28;19922;-78
2023/02/27 10:43:45;;;;;;;;;;;;;;;27.80;25.52;98728.56;4939580;28;19981;-77
2023/02/27 10:46:12;;;;;;;;;;;;;;;27.88;25.75;98726.56;4971811;28;19921;-76
2023/02/27 10:48:37;;;;;;;;;;;;;;;27.87;25.94;98723.06;4955562;28;19918;-79
2023/02/27 10:51:21;;;;;;;;;;;;;;;27.87;26.25;98725.75;4955725;28;19924;-78
2023/02/27 10:53:46;;;;;;;;;;;;;;;27.93;26.11;98729.41;4991665;28;20381;-79
2023/02/27 10:56:14;;;;;;;;;;;;;;;28.17;25.89;98724.09;5015859;28;19924;-76
2023/02/27 10:58:39;;;;;;;;;;;;;;;28.15;26.08;98718.97;5016636;28;19917;-77
2023/02/27 11:01:10;;;;;;;;;;;;;;;28.04;26.03;98715.22;5016783;28;19929;-76
2023/02/27 11:03:36;;;;;;;;;;;;;;;28.04;25.97;98719.75;5016651;28;19926;-74
2023/02/27 11:06:05;;;;;;;;;;;;;;;28.17;26.10;98724.09;4999056;28;19917;-77
2023/02/27 11:08:30;;;;;;;;;;;;;;;28.17;26.27;98719.53;5016656;28;19941;-76
2023/02/27 11:10:57;;;;;;;;;;;;;;;28.08;26.59;98715.56;4982823;28;20376;-72
2023/02/27 11:13:24;;;;;;;;;;;;;;;28.05;26.53;98706.09;5016390;28;19941;-74
2023/02/27 11:16:08;;;;;;;;;;;;;;;28.04;26.64;98709.84;4999125;28;19917;-73
2023/02/27 11:18:34;;;;;;;;;;;;;;;28.08;26.77;98715.56;5016356;28;19961;-74
2023/02/27 11:21:08;;;;;;;;;;;;;;;27.98;26.71;98718.81;5016148;28;19976;-73
2023/02/27 11:23:34;;;;;;;;;;;;;;;27.93;26.84;98713.31;5016097;28;19917;-74
2023/02/27 11:26:10;;;;;;;;;;;;;;;27.83;26.96;98710.34;5016224;28;19952;-75
2023/02/27 11:28:35;;;;;;;;;;;;;;;27.67;27.08;98699.25;4998598;28;19921;-75
2023/02/27 11:31:02;;;;;;;;;;;;;;;27.56;26.80;98702.72;4998074;28;19924;-77
2023/02/27 11:33:27;;;;;;;;;;;;;;;27.44;27.15;98689.28;4998728;28;19917;-73
2023/02/27 11:35:53;;;;;;;;;;;;;;;27.23;27.45;98693.22;4998625;28;19996;-75
2023/02/27 11:38:19;;;;;;;;;;;;;;;27.17;27.82;98689.59;5015924;28;19917;-74
2023/02/27 11:40:49;;;;;;;;;;;;;;;27.08;27.98;98678.38;4998354;28;20385;-74
2023/02/27 11:43:16;;;;;;;;;;;;;;;27.03;27.70;98685.47;4997863;28;19988;-73
2023/02/27 11:45:41;;;;;;;;;;;;;;;26.94;27.64;98684.13;4998648;28;19918;-73
2023/02/27 11:48:09;;;;;;;;;;;;;;;26.90;28.04;98689.13;5016118;28;19924;-77
2023/02/27 11:50:35;;;;;;;;;;;;;;;26.81;28.55;98685.91;4998105;28;20423;-74
2023/02/27 11:53:09;;;;;;;;;;;;;;;26.77;28.60;98684.72;4998078;28;19917;-75
2023/02/27 11:55:34;;;;;;;;;;;;;;;26.61;28.30;98688.78;5016212;28;20024;-76
2023/02/27 11:58:10;;;;;;;;;;;;;;;26.61;28.08;98683.44;5015675;28;19964;-75
2023/02/27 12:00:38;;;;;;;;;;;;;;;26.58;28.98;98678.53;4997992;28;19921;-75
2023/02/27 12:03:23;;;;;;;;;;;;;;;26.53;28.76;98679.22;4994430;28;19922;-75
2023/02/27 12:05:56;;;;;;;;;;;;;;;26.51;29.33;98680.47;4994901;28;19949;-74
2023/02/27 12:08:35;;;;;;;;;;;;;;;26.39;29.33;98684.91;4993968;28;20013;-76
2023/02/27 12:11:05;;;;;;;;;;;;;;;26.37;29.03;98682.44;4994230;28;20303;-75
2023/02/27 12:13:31;;;;;;;;;;;;;;;26.32;29.09;98680.44;4994608;28;19917;-75
2023/02/27 12:15:56;;;;;;;;;;;;;;;26.28;28.85;98676.59;4977823;28;19921;-75
2023/02/27 12:18:27;;;;;;;;;;;;;;;26.26;29.06;98675.16;4994427;28;19917;-74
2023/02/27 12:21:12;;;;;;;;;;;;;;;26.22;28.49;98676.63;4994302;28;19922;-73
2023/02/27 12:23:40;;;;;;;;;;;;;;;26.11;28.93;98680.84;4994613;28;19944;-72
2023/02/27 12:26:17;;;;;;;;;;;;;;;25.98;28.67;98673.75;4995525;28;19980;-74
2023/02/27 12:28:45;;;;;;;;;;;;;;;25.86;28.95;98678.16;4995703;28;19941;-72
2023/02/27 12:31:30;;;;;;;;;;;;;;;25.74;28.96;98668.13;4995643;28;19982;-73
2023/02/27 12:34:17;;;;;;;;;;;;;;;25.67;28.89;98672.72;4995547;28;19918;-73
2023/02/27 12:36:42;;;;;;;;;;;;;;;25.62;29.15;98677.91;4977862;28;20020;-73
2023/02/27 12:39:12;;;;;;;;;;;;;;;25.52;29.17;98673.03;4977666;28;20465;-72
2023/02/27 12:41:42;;;;;;;;;;;;;;;25.38;29.62;98671.47;4977602;28;20270;-74
2023/02/27 12:44:08;;;;;;;;;;;;;;;25.27;29.68;98680.97;4993901;28;20008;-73
2023/02/27 12:46:45;;;;;;;;;;;;;;;25.10;29.70;98681.44;4993718;28;20013;-73
2023/02/27 12:49:14;;;;;;;;;;;;;;;25.02;29.96;98681.69;4995045;28;19925;-74
2023/02/27 12:51:46;;;;;;;;;;;;;;;24.90;30.19;98681.53;4993877;28;20356;-72
2023/02/27 12:54:17;;;;;;;;;;;;;;;24.83;30.42;98679.94;4995058;28;19964;-72